createdAt,value
2018-03-07T00:00:56.520Z,1.20
2018-03-07T00:03:23.451Z,1.30
2018-03-07T00:05:50.379Z,1.30
2018-03-07T00:08:17.469Z,1.77
2018-03-07T00:10:44.518Z,1.30
2018-03-07T00:13:11.361Z,1.30
2018-03-07T00:15:38.311Z,1.60
2018-03-07T00:18:05.195Z,1.40
2018-03-07T00:20:33.126Z,1.40
2018-03-07T00:23:00.040Z,2.07
2018-03-07T00:25:27.121Z,2.10
2018-03-07T00:27:54.268Z,2.43
2018-03-07T00:30:21.257Z,2.60
2018-03-07T00:32:48.990Z,2.30
2018-03-07T00:35:15.924Z,2.00
2018-03-07T00:37:42.985Z,2.00
2018-03-07T00:40:09.840Z,2.70
2018-03-07T00:42:36.879Z,2.53
2018-03-07T00:45:03.816Z,2.90
2018-03-07T00:47:30.739Z,2.50
2018-03-07T00:49:57.545Z,2.20
2018-03-07T00:52:25.382Z,1.30
2018-03-07T00:54:52.430Z,0.70
2018-03-07T00:57:19.479Z,0.40
2018-03-07T00:59:46.300Z,0.57
2018-03-07T01:02:13.372Z,0.90
2018-03-07T01:04:40.425Z,0.80
2018-03-07T01:07:07.471Z,0.70
2018-03-07T01:09:34.306Z,0.70
2018-03-07T01:12:01.366Z,1.00
2018-03-07T01:14:28.305Z,0.87
2018-03-07T01:16:55.362Z,1.37
2018-03-07T01:19:22.301Z,1.60
2018-03-07T01:21:49.248Z,1.30
2018-03-07T01:24:16.306Z,1.10
2018-03-07T01:26:43.112Z,1.60
2018-03-07T01:29:10.199Z,1.80
2018-03-07T01:31:37.139Z,1.90
2018-03-07T01:34:04.189Z,1.97
2018-03-07T01:36:31.246Z,1.90
2018-03-07T01:38:58.296Z,1.60
2018-03-07T01:41:25.234Z,1.80
2018-03-07T01:43:52.048Z,2.07
2018-03-07T01:46:19.136Z,1.80
2018-03-07T01:48:46.074Z,1.70
2018-03-07T01:51:12.919Z,2.03
2018-03-07T01:53:39.877Z,1.90
2018-03-07T01:56:06.777Z,2.40
2018-03-07T01:58:33.758Z,1.77
2018-03-07T02:01:00.556Z,1.70
2018-03-07T02:03:28.165Z,1.50
2018-03-07T02:05:55.031Z,1.93
2018-03-07T02:08:21.859Z,2.20
2018-03-07T02:10:48.680Z,1.80
2018-03-07T02:13:15.572Z,1.73
2018-03-07T02:15:42.440Z,1.77
2018-03-07T02:18:10.121Z,1.40
2018-03-07T02:20:36.925Z,1.40
2018-03-07T02:23:04.494Z,1.60
2018-03-07T02:25:32.128Z,1.60
2018-03-07T02:27:58.929Z,1.60
2018-03-07T02:30:27.053Z,1.63
2018-03-07T02:32:53.926Z,1.70
2018-03-07T02:35:21.720Z,1.43
2018-03-07T02:37:48.561Z,1.70
2018-03-07T02:40:15.447Z,1.87
2018-03-07T02:42:42.325Z,2.10
2018-03-07T02:45:09.906Z,1.67
2018-03-07T02:47:36.796Z,1.47
2018-03-07T02:50:03.722Z,1.57
2018-03-07T02:52:30.578Z,1.60
2018-03-07T02:54:57.495Z,1.73
2018-03-07T02:57:24.383Z,2.10
2018-03-07T02:59:51.169Z,2.50
2018-03-07T03:02:18.878Z,3.20
2018-03-07T03:04:45.706Z,2.77
2018-03-07T03:07:12.496Z,2.33
2018-03-07T03:09:39.398Z,2.23
2018-03-07T03:12:06.222Z,2.17
2018-03-07T03:14:33.056Z,2.10
2018-03-07T03:17:00.562Z,1.87
2018-03-07T03:19:27.369Z,3.10
2018-03-07T03:21:54.304Z,2.40
2018-03-07T03:24:21.898Z,1.83
2018-03-07T03:26:48.761Z,2.63
2018-03-07T03:29:15.590Z,2.30
2018-03-07T03:31:42.407Z,2.30
2018-03-07T03:34:10.029Z,2.30
2018-03-07T03:36:36.841Z,1.90
2018-03-07T03:39:03.791Z,1.30
2018-03-07T03:41:30.590Z,1.10
2018-03-07T03:43:58.219Z,2.60
2018-03-07T03:46:25.064Z,2.90
2018-03-07T03:48:51.959Z,2.63
2018-03-07T03:51:18.837Z,2.20
2018-03-07T03:53:45.664Z,2.50
2018-03-07T03:56:12.546Z,2.10
2018-03-07T03:58:39.380Z,1.50
2018-03-07T04:01:06.210Z,1.53
2018-03-07T04:03:33.106Z,1.90
2018-03-07T04:06:00.661Z,1.70
2018-03-07T04:08:27.479Z,2.50
2018-03-07T04:10:54.318Z,2.10
2018-03-07T04:13:21.151Z,1.80
2018-03-07T04:15:47.978Z,1.60
2018-03-07T04:18:14.747Z,1.43
2018-03-07T04:20:41.665Z,1.67
2018-03-07T04:23:08.460Z,1.80
2018-03-07T04:25:36.122Z,1.53
2018-03-07T04:28:03.644Z,1.57
2018-03-07T04:30:30.512Z,1.43
2018-03-07T04:32:57.455Z,1.20
2018-03-07T04:35:24.299Z,1.17
2018-03-07T04:37:51.357Z,1.50
2018-03-07T04:40:18.509Z,1.63
2018-03-07T04:42:45.450Z,1.50
2018-03-07T04:45:19.417Z,1.40
2018-03-07T04:47:47.029Z,1.30
2018-03-07T04:50:13.821Z,1.33
2018-03-07T04:52:41.401Z,1.43
2018-03-07T04:55:08.297Z,1.80
2018-03-07T04:57:35.154Z,1.93
2018-03-07T05:00:02.820Z,1.90
2018-03-07T05:02:30.398Z,2.40
2018-03-07T05:04:57.970Z,1.43
2018-03-07T05:07:24.860Z,0.90
2018-03-07T05:09:51.637Z,0.97
2018-03-07T05:12:19.264Z,1.23
2018-03-07T05:14:46.063Z,0.90
2018-03-07T05:17:12.964Z,0.90
2018-03-07T05:19:39.850Z,1.10
2018-03-07T05:22:07.506Z,1.00
2018-03-07T05:24:35.096Z,1.00
2018-03-07T05:27:01.924Z,1.10
2018-03-07T05:29:28.750Z,1.10
2018-03-07T05:31:56.296Z,1.60
2018-03-07T05:34:23.123Z,1.37
2018-03-07T05:36:49.984Z,1.10
2018-03-07T05:39:16.803Z,1.00
2018-03-07T05:41:43.639Z,0.93
2018-03-07T05:44:10.574Z,0.90
2018-03-07T05:46:37.481Z,0.90
2018-03-07T05:49:05.109Z,1.13
2018-03-07T05:51:31.916Z,1.20
2018-03-07T05:53:59.202Z,1.10
2018-03-07T05:56:26.047Z,1.10
2018-03-07T05:58:52.968Z,1.10
2018-03-07T06:01:20.048Z,1.20
2018-03-07T06:03:47.096Z,1.27
2018-03-07T06:06:14.147Z,1.33
2018-03-07T06:08:41.195Z,1.23
2018-03-07T06:11:08.221Z,1.30
2018-03-07T06:13:35.179Z,1.70
2018-03-07T06:16:03.052Z,1.03
2018-03-07T06:18:29.896Z,1.10
2018-03-07T06:20:56.851Z,1.30
2018-03-07T06:23:23.900Z,1.20
2018-03-07T06:25:50.692Z,1.23
2018-03-07T06:28:18.403Z,1.10
2018-03-07T06:30:45.348Z,1.00
2018-03-07T06:33:12.192Z,1.00
2018-03-07T06:35:39.617Z,1.27
2018-03-07T06:38:06.496Z,1.17
2018-03-07T06:40:33.441Z,1.10
2018-03-07T06:43:00.389Z,1.13
2018-03-07T06:45:27.312Z,1.10
2018-03-07T06:47:54.183Z,1.27
2018-03-07T06:50:21.278Z,1.13
2018-03-07T06:52:48.907Z,1.00
2018-03-07T06:55:16.559Z,1.10
2018-03-07T06:57:43.615Z,1.10
2018-03-07T07:00:10.553Z,1.30
2018-03-07T07:02:37.507Z,4.33
2018-03-07T07:05:04.559Z,2.20
2018-03-07T07:07:31.609Z,2.53
2018-03-07T07:09:58.419Z,2.03
2018-03-07T07:12:26.217Z,1.47
2018-03-07T07:14:53.670Z,1.40
2018-03-07T07:17:22.234Z,1.53
2018-03-07T07:19:49.058Z,1.30
2018-03-07T07:22:16.053Z,1.50
2018-03-07T07:24:42.843Z,1.17
2018-03-07T07:27:10.533Z,1.10
2018-03-07T07:29:37.399Z,1.33
2018-03-07T07:32:04.342Z,1.43
2018-03-07T07:34:31.188Z,1.37
2018-03-07T07:36:58.248Z,1.60
2018-03-07T07:39:25.067Z,1.10
2018-03-07T07:41:51.907Z,1.07
2018-03-07T07:44:18.774Z,1.10
2018-03-07T07:46:45.832Z,1.20
2018-03-07T07:49:12.981Z,1.47
2018-03-07T07:51:40.032Z,1.40
2018-03-07T07:54:06.820Z,1.20
2018-03-07T07:56:34.642Z,1.30
2018-03-07T07:59:01.692Z,1.37
2018-03-07T08:01:28.637Z,1.60
2018-03-07T08:03:55.584Z,2.53
2018-03-07T08:06:23.219Z,2.30
2018-03-07T08:08:50.188Z,2.87
2018-03-07T08:11:24.058Z,1.30
2018-03-07T08:13:50.876Z,1.73
2018-03-07T08:16:18.482Z,1.67
2018-03-07T08:18:45.454Z,1.40
2018-03-07T08:21:12.373Z,1.30
2018-03-07T08:23:39.176Z,1.30
2018-03-07T08:26:06.807Z,1.20
2018-03-07T08:28:33.964Z,0.87
2018-03-07T08:31:01.006Z,1.17
2018-03-07T08:33:28.064Z,1.80
2018-03-07T08:35:54.858Z,2.27
2018-03-07T08:38:21.649Z,3.40
2018-03-07T08:40:48.698Z,4.80
2018-03-07T08:43:15.747Z,5.00
2018-03-07T08:45:42.899Z,4.00
2018-03-07T08:48:09.813Z,3.20
2018-03-07T08:50:36.795Z,3.73
2018-03-07T08:53:04.755Z,3.07
2018-03-07T08:55:31.581Z,2.50
2018-03-07T08:57:58.515Z,2.30
2018-03-07T09:00:25.814Z,2.20
2018-03-07T09:02:52.726Z,2.10
2018-03-07T09:05:19.919Z,2.07
2018-03-07T09:07:46.746Z,1.40
2018-03-07T09:10:14.666Z,1.43
2018-03-07T09:12:43.198Z,1.40
2018-03-07T09:15:15.149Z,1.40
2018-03-07T09:17:41.990Z,1.10
2018-03-07T09:20:08.958Z,1.33
2018-03-07T09:22:36.013Z,1.30
2018-03-07T09:25:02.901Z,1.53
2018-03-07T09:27:30.515Z,1.10
2018-03-07T09:29:57.458Z,1.30
2018-03-07T09:32:24.516Z,1.70
2018-03-07T09:34:51.567Z,1.43
2018-03-07T09:37:18.406Z,1.43
2018-03-07T09:39:45.353Z,1.50
2018-03-07T09:42:12.298Z,1.57
2018-03-07T09:44:39.265Z,1.53
2018-03-07T09:47:06.191Z,1.53
2018-03-07T09:49:33.139Z,1.03
2018-03-07T09:51:59.949Z,2.20
2018-03-07T09:54:27.040Z,2.30
2018-03-07T09:56:53.981Z,2.23
2018-03-07T09:59:20.934Z,1.60
2018-03-07T10:01:47.744Z,1.70
2018-03-07T10:04:14.588Z,1.87
2018-03-07T10:06:41.458Z,1.77
2018-03-07T10:09:08.520Z,2.17
2018-03-07T10:11:35.483Z,1.87
2018-03-07T10:14:02.512Z,1.93
2018-03-07T10:16:29.437Z,1.90
2018-03-07T10:18:56.502Z,2.10
2018-03-07T10:21:23.464Z,1.80
2018-03-07T10:23:52.041Z,2.10
2018-03-07T10:26:19.091Z,1.67
2018-03-07T10:28:46.140Z,1.67
2018-03-07T10:31:13.184Z,2.00
2018-03-07T10:33:40.240Z,1.60
2018-03-07T10:36:07.186Z,2.30
2018-03-07T10:38:34.331Z,3.17
2018-03-07T10:41:01.174Z,2.27
2018-03-07T10:43:28.121Z,2.63
2018-03-07T10:45:54.933Z,3.27
2018-03-07T10:48:21.808Z,4.87
2018-03-07T10:50:48.773Z,5.57
2018-03-07T10:53:15.600Z,3.27
2018-03-07T10:55:42.448Z,2.77
2018-03-07T10:58:09.509Z,2.30
2018-03-07T11:00:36.657Z,2.50
2018-03-07T11:03:05.234Z,1.90
2018-03-07T11:05:32.293Z,2.40
2018-03-07T11:07:59.128Z,2.87
2018-03-07T11:10:26.184Z,5.57
2018-03-07T11:12:53.334Z,3.10
2018-03-07T11:15:39.819Z,7.70
2018-03-07T11:18:06.781Z,3.03
2018-03-07T11:20:34.397Z,2.40
2018-03-07T11:23:03.858Z,3.10
2018-03-07T11:25:30.692Z,2.57
2018-03-07T11:27:57.605Z,2.57
2018-03-07T11:30:25.009Z,2.30
2018-03-07T11:32:51.839Z,2.23
2018-03-07T11:35:18.665Z,2.40
2018-03-07T11:37:45.434Z,2.57
2018-03-07T11:40:12.389Z,2.17
2018-03-07T11:42:39.320Z,2.20
2018-03-07T11:45:06.294Z,3.23
2018-03-07T11:47:34.145Z,4.10
2018-03-07T11:50:01.091Z,3.50
2018-03-07T11:52:28.034Z,2.90
2018-03-07T11:54:55.089Z,3.30
2018-03-07T11:57:22.025Z,2.90
2018-03-07T11:59:49.091Z,2.60
2018-03-07T12:02:23.200Z,2.73
2018-03-07T12:04:50.136Z,2.23
2018-03-07T12:07:16.991Z,2.60
2018-03-07T12:09:43.931Z,2.57
2018-03-07T12:12:10.877Z,2.80
2018-03-07T12:14:56.912Z,2.70
2018-03-07T12:17:24.473Z,2.53
2018-03-07T12:19:51.484Z,3.00
2018-03-07T12:22:18.431Z,2.50
2018-03-07T12:24:45.350Z,2.23
2018-03-07T12:27:12.178Z,2.80
2018-03-07T12:29:39.165Z,2.97
2018-03-07T12:32:21.072Z,2.90
2018-03-07T12:34:48.009Z,3.43
2018-03-07T12:37:14.959Z,3.37
2018-03-07T12:39:41.967Z,2.60
2018-03-07T12:42:09.643Z,2.77
2018-03-07T12:44:36.619Z,3.47
2018-03-07T12:47:03.679Z,3.10
2018-03-07T12:49:30.500Z,3.33
2018-03-07T12:51:57.312Z,2.97
2018-03-07T12:54:25.133Z,4.80
2018-03-07T12:56:52.046Z,3.10
2018-03-07T12:59:18.820Z,3.10
2018-03-07T13:01:45.845Z,3.20
2018-03-07T13:04:12.851Z,2.93
2018-03-07T13:06:40.787Z,2.80
2018-03-07T13:09:07.728Z,2.70
2018-03-07T13:11:34.783Z,2.50
2018-03-07T13:14:01.833Z,2.20
2018-03-07T13:16:28.902Z,3.50
2018-03-07T13:19:01.538Z,2.77
2018-03-07T13:21:28.503Z,2.90
2018-03-07T13:23:55.412Z,2.47
2018-03-07T13:26:22.507Z,2.80
2018-03-07T13:28:49.556Z,2.63
2018-03-07T13:31:16.467Z,2.50
2018-03-07T13:33:43.552Z,2.67
2018-03-07T13:36:10.602Z,2.53
2018-03-07T13:38:37.651Z,2.73
2018-03-07T13:41:04.803Z,3.80
2018-03-07T13:43:31.852Z,2.80
2018-03-07T13:45:58.792Z,2.70
2018-03-07T13:48:25.639Z,1.80
2018-03-07T13:50:52.553Z,2.90
2018-03-07T13:53:19.426Z,3.00
2018-03-07T13:55:46.375Z,3.00
2018-03-07T13:58:13.220Z,3.10
2018-03-07T14:00:40.187Z,2.73
2018-03-07T14:03:07.008Z,2.60
2018-03-07T14:05:33.875Z,2.33
2018-03-07T14:08:00.727Z,2.70
2018-03-07T14:10:27.582Z,2.40
2018-03-07T14:12:55.174Z,2.20
2018-03-07T14:15:53.445Z,2.63
2018-03-07T14:18:21.039Z,3.63
2018-03-07T14:20:47.892Z,3.33
2018-03-07T14:23:14.688Z,5.10
2018-03-07T14:25:42.351Z,6.03
2018-03-07T14:28:09.995Z,2.47
2018-03-07T14:30:36.856Z,3.27
2018-03-07T14:33:04.772Z,4.40
2018-03-07T14:35:31.629Z,3.00
2018-03-07T14:37:58.500Z,2.90
2018-03-07T14:40:25.739Z,2.77
2018-03-07T14:42:52.576Z,3.07
2018-03-07T14:45:19.732Z,2.93
2018-03-07T14:47:46.669Z,2.43
2018-03-07T14:50:20.900Z,3.33
2018-03-07T14:52:47.937Z,2.60
2018-03-07T14:55:14.879Z,3.10
2018-03-07T14:57:41.940Z,2.63
2018-03-07T15:00:08.806Z,2.93
2018-03-07T15:02:35.728Z,2.97
2018-03-07T15:05:02.771Z,3.37
2018-03-07T15:07:30.359Z,2.40
2018-03-07T15:09:57.390Z,2.70
2018-03-07T15:12:24.259Z,2.80
2018-03-07T15:15:12.942Z,2.20
2018-03-07T15:17:40.042Z,3.33
2018-03-07T15:20:06.832Z,2.83
2018-03-07T15:22:34.507Z,2.90
2018-03-07T15:25:01.447Z,2.70
2018-03-07T15:27:28.427Z,4.17
2018-03-07T15:29:55.494Z,3.87
2018-03-07T15:32:22.416Z,3.50
2018-03-07T15:34:49.491Z,2.97
2018-03-07T15:37:16.449Z,3.93
2018-03-07T15:39:44.305Z,2.80
2018-03-07T15:42:11.223Z,3.50
2018-03-07T15:44:38.185Z,2.83
2018-03-07T15:47:05.141Z,2.83
2018-03-07T15:49:31.941Z,4.70
2018-03-07T15:51:59.655Z,5.00
2018-03-07T15:54:26.493Z,5.40
2018-03-07T15:56:53.541Z,3.10
2018-03-07T15:59:20.701Z,3.30
2018-03-07T16:01:47.750Z,3.47
2018-03-07T16:04:14.801Z,4.20
2018-03-07T16:06:41.740Z,3.23
2018-03-07T16:09:08.529Z,3.77
2018-03-07T16:11:36.247Z,3.10
2018-03-07T16:14:03.307Z,4.50
2018-03-07T16:16:37.780Z,3.43
2018-03-07T16:19:04.607Z,3.77
2018-03-07T16:21:32.439Z,4.13
2018-03-07T16:23:59.379Z,3.50
2018-03-07T16:26:26.436Z,3.20
2018-03-07T16:28:53.254Z,3.80
2018-03-07T16:31:20.052Z,3.20
2018-03-07T16:33:47.763Z,3.40
2018-03-07T16:36:14.619Z,4.20
2018-03-07T16:38:41.580Z,3.60
2018-03-07T16:41:08.417Z,3.77
2018-03-07T16:43:35.362Z,3.13
2018-03-07T16:46:02.157Z,4.83
2018-03-07T16:48:29.713Z,4.57
2018-03-07T16:50:57.333Z,4.27
2018-03-07T16:53:24.255Z,3.70
2018-03-07T16:55:51.072Z,4.00
2018-03-07T16:58:18.668Z,5.67
2018-03-07T17:00:45.550Z,4.47
2018-03-07T17:03:13.201Z,4.93
2018-03-07T17:05:40.047Z,6.10
2018-03-07T17:08:06.891Z,5.73
2018-03-07T17:10:33.722Z,5.20
2018-03-07T17:13:00.548Z,4.97
2018-03-07T17:18:34.736Z,4.60
2018-03-07T17:21:01.584Z,5.17
2018-03-07T17:23:43.288Z,4.20
2018-03-07T17:26:10.828Z,4.00
2018-03-07T17:28:37.679Z,4.70
2018-03-07T17:31:04.505Z,6.30
2018-03-07T17:33:31.319Z,7.13
2018-03-07T17:35:58.253Z,18.27
2018-03-07T17:38:25.114Z,26.60
2018-03-07T17:40:51.996Z,18.53
2018-03-07T17:43:18.878Z,20.13
2018-03-07T17:45:46.523Z,15.97
2018-03-07T17:48:14.113Z,19.23
2018-03-07T17:50:40.979Z,20.27
2018-03-07T17:53:07.848Z,18.63
2018-03-07T17:55:34.722Z,12.13
2018-03-07T17:58:02.372Z,10.97
2018-03-07T18:00:29.215Z,10.90
2018-03-07T18:02:56.098Z,12.40
2018-03-07T18:05:23.663Z,14.17
2018-03-07T18:07:50.530Z,16.80
2018-03-07T18:10:17.405Z,13.43
2018-03-07T18:12:44.252Z,12.23
2018-03-07T18:15:39.088Z,9.10
2018-03-07T18:18:05.933Z,7.30
2018-03-07T18:20:33.537Z,9.87
2018-03-07T18:23:00.342Z,11.73
2018-03-07T18:25:27.926Z,14.90
2018-03-07T18:27:54.812Z,11.93
2018-03-07T18:30:21.669Z,7.67
2018-03-07T18:32:49.252Z,6.03
2018-03-07T18:35:16.854Z,5.10
2018-03-07T18:37:43.689Z,5.27
2018-03-07T18:40:10.512Z,4.43
2018-03-07T18:42:37.708Z,5.37
2018-03-07T18:45:04.618Z,5.80
2018-03-07T18:47:31.505Z,5.60
2018-03-07T18:49:58.382Z,5.07
2018-03-07T18:52:26.217Z,4.33
2018-03-07T18:54:53.179Z,4.53
2018-03-07T18:57:20.756Z,7.73
2018-03-07T18:59:48.379Z,16.17
2018-03-07T19:02:15.451Z,11.83
2018-03-07T19:04:42.486Z,9.50
2018-03-07T19:07:10.452Z,9.53
2018-03-07T19:09:37.384Z,9.60
2018-03-07T19:12:04.352Z,6.17
2018-03-07T19:14:47.580Z,4.60
2018-03-07T19:17:17.556Z,6.37
2018-03-07T19:19:44.442Z,7.03
2018-03-07T19:22:11.322Z,6.73
2018-03-07T19:24:38.868Z,7.63
2018-03-07T19:27:05.772Z,8.50
2018-03-07T19:29:32.724Z,9.87
2018-03-07T19:31:59.587Z,9.17
2018-03-07T19:34:26.397Z,10.13
2018-03-07T19:36:53.385Z,9.60
2018-03-07T19:39:20.637Z,10.07
2018-03-07T19:41:47.758Z,7.43
2018-03-07T19:44:15.656Z,6.13
2018-03-07T19:46:42.709Z,7.60
2018-03-07T19:49:09.644Z,10.70
2018-03-07T19:51:36.570Z,10.03
2018-03-07T19:54:03.433Z,8.33
2018-03-07T19:56:30.364Z,7.40
2018-03-07T19:58:57.230Z,12.67
2018-03-07T20:01:24.180Z,11.40
2018-03-07T20:03:51.121Z,12.30
2018-03-07T20:06:18.182Z,12.03
2018-03-07T20:08:45.008Z,9.43
2018-03-07T20:11:16.889Z,7.87
2018-03-07T20:13:43.701Z,8.37
2018-03-07T20:19:10.187Z,11.67
2018-03-07T20:21:37.107Z,9.93
2018-03-07T20:24:04.070Z,10.07
2018-03-07T20:26:31.236Z,10.80
2018-03-07T20:28:58.282Z,9.50
2018-03-07T20:31:25.330Z,7.43
2018-03-07T20:33:52.270Z,5.37
2018-03-07T20:36:19.150Z,4.90
2018-03-07T20:38:46.888Z,6.27
2018-03-07T20:41:13.801Z,24.43
2018-03-07T20:43:40.669Z,30.70
2018-03-07T20:46:07.629Z,29.07
2018-03-07T20:48:34.565Z,23.50
2018-03-07T20:51:01.494Z,16.93
2018-03-07T20:53:28.497Z,13.70
2018-03-07T20:55:56.124Z,11.43
2018-03-07T20:58:24.170Z,9.87
2018-03-07T21:00:51.046Z,9.07
2018-03-07T21:03:18.398Z,7.80
2018-03-07T21:05:45.454Z,9.30
2018-03-07T21:08:12.504Z,6.63
2018-03-07T21:10:39.556Z,6.43
2018-03-07T21:13:06.494Z,5.30
2018-03-07T21:22:10.694Z,3.20
2018-03-07T21:24:37.819Z,3.60
2018-03-07T21:27:43.488Z,3.43
2018-03-07T21:30:10.336Z,2.90
2018-03-07T21:32:37.269Z,3.20
2018-03-07T21:35:04.416Z,4.20
2018-03-07T21:37:31.356Z,4.33
2018-03-07T21:39:58.300Z,4.70
2018-03-07T21:42:26.172Z,4.60
2018-03-07T21:44:53.114Z,4.10
2018-03-07T21:47:20.097Z,3.80
2018-03-07T21:49:47.864Z,3.17
2018-03-07T21:52:15.494Z,3.30
2018-03-07T21:54:42.543Z,3.30
2018-03-07T21:57:09.503Z,3.53
2018-03-07T21:59:36.584Z,3.10
2018-03-07T22:02:03.703Z,4.53
2018-03-07T22:04:30.507Z,3.87
2018-03-07T22:06:57.388Z,5.10
2018-03-07T22:09:24.465Z,4.47
2018-03-07T22:11:51.375Z,3.50
2018-03-07T22:14:18.923Z,3.10
2018-03-07T22:19:55.434Z,4.23
2018-03-07T22:22:23.215Z,4.57
2018-03-07T22:24:50.120Z,4.23
2018-03-07T22:27:17.099Z,2.83
2018-03-07T22:29:44.039Z,2.70
2018-03-07T22:32:11.109Z,2.43
2018-03-07T22:34:37.931Z,2.93
2018-03-07T22:37:04.989Z,2.90
2018-03-07T22:39:31.804Z,2.93
2018-03-07T22:41:58.856Z,3.80
2018-03-07T22:44:25.572Z,3.23
2018-03-07T22:46:53.180Z,2.60
2018-03-07T22:51:53.525Z,2.47
2018-03-07T22:54:20.498Z,2.37
2018-03-07T22:56:47.530Z,2.93
2018-03-07T22:59:14.470Z,2.20
2018-03-07T23:01:41.264Z,2.40
2018-03-07T23:04:08.872Z,2.17
2018-03-07T23:06:35.719Z,3.43
2018-03-07T23:09:02.585Z,3.30
2018-03-07T23:11:29.613Z,4.40
2018-03-07T23:13:56.573Z,4.37
2018-03-07T23:16:23.617Z,3.43
2018-03-07T23:18:50.666Z,3.83
2018-03-07T23:21:17.719Z,3.47
2018-03-07T23:23:44.538Z,3.43
2018-03-07T23:26:11.398Z,3.10
2018-03-07T23:28:38.329Z,2.47
2018-03-07T23:31:05.300Z,2.47
2018-03-07T23:33:32.247Z,2.70
2018-03-07T23:35:59.024Z,2.20
2018-03-07T23:38:26.651Z,2.60
2018-03-07T23:40:53.604Z,2.13
2018-03-07T23:43:20.436Z,2.90
2018-03-07T23:45:47.486Z,2.17
2018-03-07T23:48:14.251Z,2.50
2018-03-07T23:50:41.286Z,2.30
2018-03-07T23:53:08.333Z,2.60
2018-03-07T23:55:35.279Z,2.20
2018-03-07T23:58:02.329Z,3.20
